createdAt,value
2023-04-14T00:01:30.148Z,85.12
2023-04-14T00:03:34.049Z,85.01
2023-04-14T00:05:37.797Z,85.17
2023-04-14T00:07:41.364Z,85.36
2023-04-14T00:09:44.906Z,85.63
2023-04-14T00:11:50.957Z,85.77
2023-04-14T00:13:56.110Z,85.25
2023-04-14T00:15:59.499Z,86.38
2023-04-14T00:18:03.396Z,85.29
2023-04-14T00:20:08.550Z,85.91
2023-04-14T00:22:12.382Z,85.99
2023-04-14T00:24:16.045Z,85.80
2023-04-14T00:26:19.749Z,86.40
2023-04-14T00:28:25.740Z,85.91
2023-04-14T00:30:29.388Z,86.08
2023-04-14T00:32:33.061Z,85.83
2023-04-14T00:34:37.101Z,86.06
2023-04-14T00:36:41.492Z,85.78
2023-04-14T00:38:44.947Z,86.00
2023-04-14T00:40:48.714Z,86.03
2023-04-14T00:42:52.466Z,85.73
2023-04-14T00:44:57.617Z,85.79
2023-04-14T00:47:03.149Z,86.20
2023-04-14T00:49:07.057Z,85.88
2023-04-14T00:51:11.212Z,85.99
2023-04-14T00:53:37.271Z,86.23
2023-04-14T00:55:41.795Z,86.14
2023-04-14T00:57:46.137Z,86.25
2023-04-14T00:59:49.845Z,86.60
2023-04-14T01:01:56.591Z,86.70
2023-04-14T01:04:00.460Z,87.61
2023-04-14T01:06:04.457Z,87.21
2023-04-14T01:08:08.139Z,86.49
2023-04-14T01:10:12.707Z,86.88
2023-04-14T01:12:28.030Z,86.75
2023-04-14T01:14:42.647Z,87.23
2023-04-14T01:16:50.368Z,86.65
2023-04-14T01:19:08.186Z,86.65
2023-04-14T01:21:24.884Z,87.37
2023-04-14T01:23:34.946Z,87.55
2023-04-14T01:29:00.647Z,87.40
2023-04-14T01:31:24.729Z,87.36
2023-04-14T01:33:31.934Z,87.37
2023-04-14T01:35:40.086Z,88.00
2023-04-14T01:37:48.952Z,87.94
2023-04-14T01:39:55.702Z,88.10
2023-04-14T01:41:59.830Z,88.18
2023-04-14T01:44:05.739Z,88.46
2023-04-14T01:46:14.252Z,88.02
2023-04-14T01:48:19.526Z,88.33
2023-04-14T01:50:24.638Z,88.19
2023-04-14T01:52:28.856Z,89.02
2023-04-14T01:54:34.808Z,88.57
2023-04-14T01:56:41.719Z,87.90
2023-04-14T01:58:48.935Z,87.99
2023-04-14T02:00:54.668Z,88.11
2023-04-14T02:02:58.875Z,88.60
2023-04-14T02:05:10.113Z,89.02
2023-04-14T02:07:14.937Z,89.36
2023-04-14T02:09:20.587Z,89.85
2023-04-14T02:11:25.913Z,89.65
2023-04-14T02:13:30.054Z,90.48
2023-04-14T02:15:34.886Z,90.82
2023-04-14T02:17:38.718Z,90.52
2023-04-14T02:19:45.577Z,90.29
2023-04-14T02:21:53.827Z,90.03
2023-04-14T02:23:57.621Z,91.68
2023-04-14T02:26:06.810Z,90.45
2023-04-14T02:28:17.648Z,91.19
2023-04-14T02:30:25.645Z,90.84
2023-04-14T02:32:31.375Z,91.75
2023-04-14T02:34:38.343Z,91.11
2023-04-14T02:36:49.581Z,91.40
2023-04-14T02:38:59.476Z,90.65
2023-04-14T02:41:09.304Z,90.83
2023-04-14T02:43:17.976Z,90.78
2023-04-14T02:45:26.556Z,91.08
2023-04-14T02:47:34.355Z,91.21
2023-04-14T02:49:41.377Z,91.95
2023-04-14T02:51:48.190Z,91.92
2023-04-14T02:53:52.796Z,90.95
2023-04-14T02:56:21.972Z,90.45
2023-04-14T02:58:29.386Z,91.06
2023-04-14T03:00:34.383Z,90.92
2023-04-14T03:02:39.863Z,90.54
2023-04-14T03:04:46.214Z,90.62
2023-04-14T03:06:59.826Z,90.42
2023-04-14T03:09:05.257Z,90.14
2023-04-14T03:11:10.808Z,90.57
2023-04-14T03:13:19.895Z,90.26
2023-04-14T03:15:26.202Z,90.81
2023-04-14T03:17:31.149Z,91.00
2023-04-14T03:19:36.698Z,91.78
2023-04-14T03:21:41.111Z,90.87
2023-04-14T03:23:46.399Z,92.58
2023-04-14T03:25:51.107Z,91.91
2023-04-14T03:28:03.048Z,92.67
2023-04-14T03:30:11.538Z,92.47
2023-04-14T03:32:19.303Z,92.43
2023-04-14T03:34:24.571Z,92.32
2023-04-14T03:36:32.338Z,91.97
2023-04-14T03:38:37.423Z,91.77
2023-04-14T03:40:44.323Z,92.92
2023-04-14T03:42:48.848Z,92.53
2023-04-14T03:44:57.220Z,92.49
2023-04-14T03:47:03.832Z,93.15
2023-04-14T03:49:11.346Z,93.99
2023-04-14T03:51:17.175Z,94.53
2023-04-14T03:53:21.792Z,93.85
2023-04-14T03:55:27.612Z,93.26
2023-04-14T03:57:33.716Z,92.89
2023-04-14T03:59:39.896Z,92.54
2023-04-14T04:01:44.136Z,92.90
2023-04-14T04:03:50.026Z,93.54
2023-04-14T04:05:54.543Z,93.97
2023-04-14T04:08:03.189Z,93.61
2023-04-14T04:10:09.084Z,93.83
2023-04-14T04:12:15.747Z,93.85
2023-04-14T04:14:21.574Z,93.49
2023-04-14T04:16:30.505Z,94.29
2023-04-14T04:18:38.320Z,94.17
2023-04-14T04:20:46.353Z,93.83
2023-04-14T04:22:53.327Z,93.73
2023-04-14T04:24:57.963Z,94.60
2023-04-14T04:27:12.059Z,94.13
2023-04-14T04:29:22.767Z,93.69
2023-04-14T04:31:26.701Z,93.57
2023-04-14T04:33:31.851Z,93.90
2023-04-14T04:35:37.656Z,93.93
2023-04-14T04:37:46.352Z,93.88
2023-04-14T04:39:50.707Z,93.96
2023-04-14T04:42:03.355Z,95.47
2023-04-14T04:44:06.766Z,95.75
2023-04-14T04:46:31.024Z,96.03
2023-04-14T04:48:35.074Z,95.73
2023-04-14T04:50:38.329Z,95.67
2023-04-14T04:52:41.658Z,95.25
2023-04-14T04:54:52.245Z,95.85
2023-04-14T04:56:56.640Z,94.90
2023-04-14T04:59:00.507Z,94.94
2023-04-14T05:01:08.975Z,94.93
2023-04-14T05:03:12.374Z,94.70
2023-04-14T05:05:15.794Z,94.17
2023-04-14T05:07:19.825Z,94.61
2023-04-14T05:09:23.238Z,94.79
2023-04-14T05:11:28.147Z,94.98
2023-04-14T05:13:31.403Z,94.24
2023-04-14T05:15:34.685Z,94.93
2023-04-14T05:17:38.844Z,95.96
2023-04-14T05:19:42.174Z,96.07
2023-04-14T05:21:45.386Z,95.68
2023-04-14T05:23:49.327Z,95.73
2023-04-14T05:25:52.618Z,95.85
2023-04-14T05:27:57.313Z,96.37
2023-04-14T05:30:00.565Z,96.43
2023-04-14T05:32:03.912Z,96.37
2023-04-14T05:34:07.320Z,96.91
2023-04-14T05:36:10.654Z,96.83
2023-04-14T05:38:14.506Z,96.96
2023-04-14T05:40:18.215Z,96.19
2023-04-14T05:42:21.695Z,95.91
2023-04-14T05:44:26.786Z,96.16
2023-04-14T05:46:30.478Z,95.88
2023-04-14T05:48:36.245Z,95.41
2023-04-14T05:50:40.014Z,94.66
2023-04-14T05:52:43.743Z,95.05
2023-04-14T05:54:47.448Z,94.91
2023-04-14T05:56:50.988Z,95.55
2023-04-14T05:58:55.935Z,95.71
2023-04-14T06:01:00.952Z,95.52
2023-04-14T06:03:05.580Z,95.18
2023-04-14T06:05:10.555Z,95.22
2023-04-14T06:07:14.262Z,95.58
2023-04-14T06:09:17.704Z,95.42
2023-04-14T06:11:21.349Z,94.91
2023-04-14T06:13:25.044Z,95.05
2023-04-14T06:15:29.956Z,95.37
2023-04-14T06:17:35.712Z,95.41
2023-04-14T06:19:40.120Z,95.71
2023-04-14T06:21:44.039Z,96.04
2023-04-14T06:23:47.956Z,96.29
2023-04-14T06:25:53.058Z,94.91
2023-04-14T06:27:57.249Z,91.90
2023-04-14T06:30:01.941Z,87.44
2023-04-14T06:32:06.068Z,84.08
2023-04-14T06:34:11.273Z,80.97
2023-04-14T06:36:18.268Z,77.04
2023-04-14T06:38:21.798Z,74.98
2023-04-14T06:40:25.426Z,73.41
2023-04-14T06:42:29.022Z,71.29
2023-04-14T06:44:32.551Z,69.32
2023-04-14T06:46:36.583Z,67.43
2023-04-14T06:48:40.278Z,66.77
2023-04-14T06:50:45.209Z,66.63
2023-04-14T06:52:48.845Z,66.71
2023-04-14T06:54:52.841Z,66.33
2023-04-14T06:56:58.074Z,65.54
2023-04-14T06:59:03.212Z,64.50
2023-04-14T07:01:07.296Z,63.65
2023-04-14T07:03:11.014Z,62.54
2023-04-14T07:05:15.604Z,60.69
2023-04-14T07:07:20.613Z,59.31
2023-04-14T07:09:24.979Z,57.98
2023-04-14T07:11:30.017Z,57.17
2023-04-14T07:13:33.911Z,55.54
2023-04-14T07:15:37.702Z,56.38
2023-04-14T07:17:41.362Z,56.04
2023-04-14T07:19:45.002Z,55.22
2023-04-14T07:21:48.729Z,54.80
2023-04-14T07:23:53.681Z,53.94
2023-04-14T07:25:58.487Z,52.66
2023-04-14T07:28:03.699Z,52.23
2023-04-14T07:30:08.894Z,51.84
2023-04-14T07:32:13.622Z,51.38
2023-04-14T07:34:17.354Z,51.14
2023-04-14T07:36:21.122Z,50.75
2023-04-14T07:38:26.609Z,50.02
2023-04-14T07:40:31.785Z,49.67
2023-04-14T07:42:35.931Z,49.00
2023-04-14T07:44:39.744Z,50.25
2023-04-14T07:46:43.530Z,50.90
2023-04-14T07:48:47.463Z,50.74
2023-04-14T07:50:51.063Z,50.28
2023-04-14T07:52:54.604Z,49.86
2023-04-14T07:54:58.254Z,49.84
2023-04-14T07:57:03.604Z,49.45
2023-04-14T07:59:07.299Z,50.37
2023-04-14T08:01:11.222Z,51.53
2023-04-14T08:03:15.197Z,52.70
2023-04-14T08:05:19.045Z,54.38
2023-04-14T08:07:22.814Z,55.00
2023-04-14T08:09:26.608Z,54.96
2023-04-14T08:11:30.163Z,55.37
2023-04-14T08:13:35.231Z,56.22
2023-04-14T08:15:38.896Z,57.47
2023-04-14T08:17:42.576Z,58.09
2023-04-14T08:19:46.683Z,58.50
2023-04-14T08:21:50.430Z,58.54
2023-04-14T08:23:54.363Z,58.01
2023-04-14T08:25:58.276Z,58.01
2023-04-14T08:28:03.594Z,58.68
2023-04-14T08:30:11.760Z,58.57
2023-04-14T08:32:15.902Z,58.91
2023-04-14T08:34:28.673Z,59.17
2023-04-14T08:36:33.207Z,59.76
2023-04-14T08:38:39.303Z,59.32
2023-04-14T08:40:44.731Z,59.40
2023-04-14T08:42:48.863Z,59.21
2023-04-14T08:44:53.687Z,58.75
2023-04-14T08:46:59.781Z,58.86
2023-04-14T08:49:06.701Z,58.26
2023-04-14T08:51:19.952Z,58.40
2023-04-14T08:53:27.543Z,58.34
2023-04-14T08:55:35.603Z,58.55
2023-04-14T08:57:40.790Z,58.93
2023-04-14T08:59:45.174Z,58.49
2023-04-14T09:01:49.454Z,57.44
2023-04-14T09:03:55.964Z,58.02
2023-04-14T09:06:00.029Z,57.82
2023-04-14T09:08:05.024Z,57.95
2023-04-14T09:10:11.790Z,58.21
2023-04-14T09:12:18.343Z,57.53
2023-04-14T09:14:23.409Z,57.07
2023-04-14T09:16:28.216Z,55.72
2023-04-14T09:18:34.792Z,54.48
2023-04-14T09:20:42.267Z,54.48
2023-04-14T09:22:46.507Z,52.66
2023-04-14T09:24:50.221Z,52.90
2023-04-14T09:26:54.944Z,52.46
2023-04-14T09:28:59.002Z,52.00
2023-04-14T09:31:03.361Z,50.78
2023-04-14T09:33:08.458Z,50.96
2023-04-14T09:35:14.123Z,51.36
2023-04-14T09:37:19.196Z,51.25
2023-04-14T09:39:22.980Z,49.62
2023-04-14T09:41:27.864Z,49.80
2023-04-14T09:43:32.759Z,49.49
2023-04-14T09:45:46.151Z,49.72
2023-04-14T09:47:50.652Z,50.34
2023-04-14T09:49:58.688Z,49.93
2023-04-14T09:52:07.985Z,50.22
2023-04-14T09:54:13.341Z,49.49
2023-04-14T09:56:17.320Z,49.26
2023-04-14T09:58:25.281Z,48.60
2023-04-14T10:00:33.428Z,49.02
2023-04-14T10:02:50.351Z,49.15
2023-04-14T10:05:05.475Z,48.42
2023-04-14T10:07:09.250Z,47.75
2023-04-14T10:09:22.644Z,46.95
2023-04-14T10:11:29.701Z,47.73
2023-04-14T10:13:33.718Z,47.48
2023-04-14T10:15:37.983Z,47.57
2023-04-14T10:17:41.904Z,47.47
2023-04-14T10:19:46.242Z,47.08
2023-04-14T10:21:51.072Z,47.02
2023-04-14T10:23:57.189Z,47.95
2023-04-14T10:26:04.124Z,46.60
2023-04-14T10:28:07.972Z,46.52
2023-04-14T10:30:12.278Z,46.87
2023-04-14T10:32:18.464Z,47.24
2023-04-14T10:34:25.464Z,47.47
2023-04-14T10:36:32.615Z,47.44
2023-04-14T10:38:44.040Z,47.13
2023-04-14T10:40:48.090Z,46.42
2023-04-14T10:42:57.581Z,45.58
2023-04-14T10:45:06.112Z,45.48
2023-04-14T10:47:10.415Z,44.98
2023-04-14T10:49:14.953Z,44.89
2023-04-14T10:51:19.394Z,44.97
2023-04-14T10:53:26.792Z,45.17
2023-04-14T10:55:30.153Z,45.79
2023-04-14T10:57:58.662Z,46.58
2023-04-14T11:00:23.558Z,46.99
2023-04-14T11:02:30.079Z,46.92
2023-04-14T11:04:35.444Z,46.69
2023-04-14T11:06:56.109Z,46.02
2023-04-14T11:09:00.523Z,46.33
2023-04-14T11:11:06.375Z,46.48
2023-04-14T11:13:16.555Z,46.90
2023-04-14T11:15:23.021Z,46.92
2023-04-14T11:17:31.337Z,46.54
2023-04-14T11:19:35.555Z,46.05
2023-04-14T11:21:51.261Z,45.78
2023-04-14T11:23:55.560Z,44.77
2023-04-14T11:25:59.498Z,44.41
2023-04-14T11:28:04.085Z,44.00
2023-04-14T11:30:09.647Z,43.01
2023-04-14T11:32:15.137Z,43.22
2023-04-14T11:34:25.992Z,42.39
2023-04-14T11:36:29.719Z,42.58
2023-04-14T11:38:35.775Z,41.84
2023-04-14T11:40:40.424Z,42.07
2023-04-14T11:42:46.862Z,40.67
2023-04-14T11:44:59.413Z,39.50
2023-04-14T11:47:05.601Z,39.31
2023-04-14T11:49:10.723Z,39.38
2023-04-14T11:51:15.267Z,39.86
2023-04-14T11:53:20.411Z,40.02
2023-04-14T11:55:27.072Z,40.34
2023-04-14T11:57:31.086Z,39.90
2023-04-14T11:59:43.640Z,39.28
2023-04-14T12:01:51.606Z,39.56
2023-04-14T12:03:55.444Z,41.12
2023-04-14T12:06:03.610Z,41.31
2023-04-14T12:08:09.041Z,41.78
2023-04-14T12:10:16.863Z,41.83
2023-04-14T12:12:21.262Z,42.67
2023-04-14T12:14:25.870Z,42.33
2023-04-14T12:16:30.182Z,42.65
2023-04-14T12:18:33.870Z,43.13
2023-04-14T12:20:44.194Z,42.90
2023-04-14T12:22:51.135Z,43.39
2023-04-14T12:24:55.405Z,43.40
2023-04-14T12:26:59.306Z,44.01
2023-04-14T12:29:03.533Z,44.13
2023-04-14T12:31:07.545Z,44.60
2023-04-14T12:33:12.360Z,45.03
2023-04-14T12:35:16.288Z,45.28
2023-04-14T12:37:26.374Z,43.82
2023-04-14T12:39:31.799Z,42.67
2023-04-14T12:41:39.840Z,41.72
2023-04-14T12:43:43.681Z,42.28
2023-04-14T12:45:51.276Z,42.00
2023-04-14T12:47:56.847Z,41.99
2023-04-14T12:50:01.977Z,41.98
2023-04-14T12:52:08.645Z,42.21
2023-04-14T12:54:12.528Z,42.46
2023-04-14T12:56:22.478Z,42.97
2023-04-14T12:58:30.554Z,43.69
2023-04-14T13:00:34.057Z,43.79
2023-04-14T13:02:38.194Z,44.20
2023-04-14T13:04:42.156Z,43.77
2023-04-14T13:06:45.886Z,43.41
2023-04-14T13:08:50.839Z,43.52
2023-04-14T13:10:54.778Z,44.15
2023-04-14T13:12:59.977Z,44.45
2023-04-14T13:15:03.568Z,44.76
2023-04-14T13:17:07.237Z,44.86
2023-04-14T13:19:10.886Z,45.00
2023-04-14T13:21:14.554Z,45.42
2023-04-14T13:23:18.737Z,45.64
2023-04-14T13:25:22.419Z,45.72
2023-04-14T13:27:26.063Z,46.19
2023-04-14T13:29:33.668Z,46.54
2023-04-14T13:31:37.300Z,46.28
2023-04-14T13:33:40.908Z,47.27
2023-04-14T13:35:44.604Z,47.13
2023-04-14T13:37:48.220Z,46.94
2023-04-14T13:39:51.802Z,47.46
2023-04-14T13:41:55.404Z,47.46
2023-04-14T13:43:58.956Z,48.14
2023-04-14T13:46:03.967Z,48.10
2023-04-14T13:48:08.076Z,48.21
2023-04-14T13:50:12.847Z,47.97
2023-04-14T13:52:16.702Z,47.84
2023-04-14T13:54:20.549Z,48.14
2023-04-14T13:56:26.009Z,48.25
2023-04-14T13:58:29.697Z,47.56
2023-04-14T14:00:33.463Z,48.00
2023-04-14T14:02:42.488Z,48.10
2023-04-14T14:04:46.859Z,48.29
2023-04-14T14:06:50.648Z,48.38
2023-04-14T14:09:06.408Z,48.52
2023-04-14T14:11:11.186Z,48.61
2023-04-14T14:13:16.665Z,48.39
2023-04-14T14:15:21.670Z,48.25
2023-04-14T14:17:25.567Z,48.26
2023-04-14T14:19:30.684Z,48.59
2023-04-14T14:21:34.197Z,48.72
2023-04-14T14:23:37.859Z,48.52
2023-04-14T14:25:41.403Z,48.60
2023-04-14T19:33:06.204Z,71.15
2023-04-14T19:35:11.213Z,71.32
2023-04-14T19:37:15.115Z,72.00
2023-04-14T19:39:20.680Z,72.60
2023-04-14T19:41:25.667Z,73.17
2023-04-14T19:43:29.666Z,73.89
2023-04-14T19:45:37.303Z,73.86
2023-04-14T19:47:41.868Z,73.69
2023-04-14T19:49:48.248Z,74.48
2023-04-14T19:51:52.892Z,74.23
2023-04-14T19:53:56.528Z,74.03
2023-04-14T19:56:02.278Z,74.51
2023-04-14T19:58:05.862Z,74.20
2023-04-14T20:00:12.289Z,74.09
2023-04-14T20:02:16.008Z,74.17
2023-04-14T20:04:20.849Z,74.25
2023-04-14T20:06:27.319Z,73.95
2023-04-14T20:08:31.188Z,73.99
2023-04-14T20:10:35.706Z,73.75
2023-04-14T20:12:39.456Z,73.04
2023-04-14T20:14:44.528Z,73.82
2023-04-14T20:16:48.225Z,73.22
2023-04-14T20:18:52.129Z,73.79
2023-04-14T20:20:56.659Z,73.91
2023-04-14T20:23:02.292Z,73.35
2023-04-14T20:25:08.001Z,73.69
2023-04-14T20:27:14.954Z,73.39
2023-04-14T20:29:18.986Z,73.73
2023-04-14T20:31:24.985Z,73.16
2023-04-14T20:33:29.691Z,73.22
2023-04-14T20:35:36.979Z,73.50
2023-04-14T20:37:40.961Z,73.83
2023-04-14T20:39:46.718Z,73.68
2023-04-14T20:41:52.093Z,73.46
2023-04-14T20:43:55.882Z,74.01
2023-04-14T20:46:00.597Z,73.72
2023-04-14T20:48:06.204Z,74.16
2023-04-14T20:50:10.974Z,73.78
2023-04-14T20:52:16.118Z,74.21
2023-04-14T20:54:20.682Z,74.20
2023-04-14T20:56:29.102Z,74.37
2023-04-14T20:58:33.835Z,73.88
2023-04-14T21:00:39.196Z,74.25
2023-04-14T21:02:45.027Z,74.66
2023-04-14T21:04:50.483Z,74.30
2023-04-14T21:06:55.138Z,74.53
2023-04-14T21:09:02.881Z,75.10
2023-04-14T21:11:15.386Z,74.69
2023-04-14T21:15:29.602Z,75.53
2023-04-14T21:15:53.042Z,74.95
2023-04-14T21:17:59.890Z,75.28
2023-04-14T21:20:04.090Z,74.99
2023-04-14T21:22:08.563Z,75.27
2023-04-14T21:24:12.037Z,75.12
2023-04-14T21:26:15.539Z,74.98
2023-04-14T21:28:20.696Z,75.16
2023-04-14T21:30:24.534Z,75.69
2023-04-14T21:32:28.714Z,75.85
2023-04-14T21:34:32.305Z,75.34
2023-04-14T21:36:36.456Z,75.54
2023-04-14T21:38:41.359Z,75.76
2023-04-14T21:40:45.184Z,75.62
2023-04-14T21:42:48.969Z,75.11
2023-04-14T21:44:53.996Z,75.38
2023-04-14T21:46:57.510Z,75.79
2023-04-14T21:49:01.443Z,75.56
2023-04-14T21:51:05.489Z,75.33
2023-04-14T21:53:09.742Z,75.43
2023-04-14T21:55:13.813Z,75.49
2023-04-14T21:57:17.582Z,75.67
2023-04-14T21:59:41.520Z,75.49
2023-04-14T22:01:47.794Z,75.17
2023-04-14T22:03:51.958Z,75.79
2023-04-14T22:05:55.768Z,75.71
2023-04-14T22:07:59.488Z,75.62
2023-04-14T22:10:03.884Z,75.85
2023-04-14T22:12:07.886Z,75.84
2023-04-14T22:14:11.548Z,76.15
2023-04-14T22:16:16.705Z,76.06
2023-04-14T22:18:22.001Z,75.73
2023-04-14T22:20:26.565Z,76.48
2023-04-14T22:22:30.306Z,75.94
2023-04-14T22:24:34.035Z,75.84
2023-04-14T22:26:37.820Z,76.19
2023-04-14T22:28:41.724Z,76.02
2023-04-14T22:30:45.439Z,75.83
2023-04-14T22:32:49.057Z,75.93
2023-04-14T22:34:54.095Z,76.31
2023-04-14T22:36:58.294Z,76.13
2023-04-14T22:39:02.317Z,76.39
2023-04-14T22:41:06.135Z,75.76
2023-04-14T22:43:10.941Z,76.06
2023-04-14T22:45:14.822Z,76.21
2023-04-14T22:47:18.449Z,76.28
2023-04-14T22:49:22.131Z,76.30
2023-04-14T22:51:27.072Z,76.38
2023-04-14T22:53:30.522Z,76.57
2023-04-14T22:55:34.141Z,76.18
2023-04-14T22:57:38.439Z,76.32
2023-04-14T22:59:42.114Z,76.15
2023-04-14T23:01:45.561Z,76.32
2023-04-14T23:03:51.267Z,76.23
2023-04-14T23:05:55.194Z,76.17
2023-04-14T23:08:00.007Z,76.49
2023-04-14T23:10:03.368Z,76.43
2023-04-14T23:12:07.053Z,76.27
2023-04-14T23:14:10.292Z,76.33
2023-04-14T23:16:13.822Z,76.33
2023-04-14T23:18:17.067Z,76.27
2023-04-14T23:20:20.678Z,76.55
2023-04-14T23:22:24.697Z,76.57
2023-04-14T23:24:29.570Z,76.84
2023-04-14T23:26:32.872Z,76.63
2023-04-14T23:28:36.100Z,77.08
2023-04-14T23:30:39.431Z,77.02
2023-04-14T23:32:42.747Z,77.12
2023-04-14T23:34:45.979Z,77.39
2023-04-14T23:36:49.611Z,77.38
2023-04-14T23:38:53.156Z,77.09
2023-04-14T23:40:59.114Z,77.32
2023-04-14T23:43:03.917Z,77.25
2023-04-14T23:45:08.626Z,77.08
2023-04-14T23:47:11.846Z,77.36
2023-04-14T23:49:24.065Z,77.10
2023-04-14T23:51:28.064Z,77.39
2023-04-14T23:53:31.391Z,77.25
2023-04-14T23:55:34.858Z,77.35
2023-04-14T23:57:40.697Z,77.44
2023-04-14T23:59:44.228Z,77.43
